Time;durP1;ratioP1;P1;durP2;ratioP2;P2;SDS_P1;SDS_P2;PMS_P1;PMS_P2;Temp;Humidity;BMP_temperature;BMP_pressure;BME280_temperature;BME280_humidity;BME280_pressure;Samples;Min_cycle;Max_cycle;Signal;HPM_P1;HPM_P2
2021/12/04 00:02:07;;;;;;;15.83;14.13;;;;;;;-0.49;75.11;99969.98;1689859;83;21045;-69
2021/12/04 00:04:36;;;;;;;20.23;14.23;;;;;;;-0.50;75.04;99976.64;1699232;83;21025;-69
2021/12/04 00:07:07;;;;;;;19.87;14.40;;;;;;;-0.50;75.17;99975.33;1704980;83;21038;-68
2021/12/04 00:09:36;;;;;;;16.90;13.03;;;;;;;-0.50;75.29;99975.33;1681791;83;21538;-69
2021/12/04 00:12:05;;;;;;;18.77;12.33;;;;;;;-0.45;75.18;99972.69;1663021;83;21627;-69
2021/12/04 00:14:36;;;;;;;18.17;12.40;;;;;;;-0.45;74.98;99977.11;1635086;86;21093;-68
2021/12/04 00:17:04;;;;;;;16.83;13.60;;;;;;;-0.45;75.03;99975.80;1642774;86;21479;-72
2021/12/04 00:19:31;;;;;;;18.30;12.67;;;;;;;-0.44;75.05;99978.27;1637003;86;21046;-69
2021/12/04 00:21:57;;;;;;;;;;;;;;;-0.40;75.05;99984.08;1641296;86;21153;-72
2021/12/04 00:24:25;;;;;;;21.67;12.87;;;;;;;-0.35;74.96;99979.30;1679983;83;20444;-71
2021/12/04 00:26:53;;;;;;;17.33;13.03;;;;;;;-0.35;74.79;99979.30;1679361;83;21622;-71
2021/12/04 00:29:22;;;;;;;17.43;12.50;;;;;;;-0.35;74.40;99981.92;1684327;85;21007;-68
2021/12/04 00:31:51;;;;;;;15.80;13.00;;;;;;;-0.37;74.29;99977.78;1687310;83;21601;-66
2021/12/04 00:34:22;;;;;;;15.00;12.60;;;;;;;-0.40;74.32;99976.22;1657118;83;21019;-70
2021/12/04 00:37:09;;;;;;;16.87;11.80;;;;;;;-0.44;74.43;99971.72;1658807;85;21074;-69
2021/12/04 00:50:21;;;;;;;17.10;12.87;;;;;;;-0.37;74.56;99973.36;1678393;84;21518;-68
2021/12/04 00:52:47;;;;;;;14.45;11.05;;;;;;;-0.37;74.24;99975.98;1664828;84;21563;-69
2021/12/04 00:55:13;;;;;;;16.25;12.25;;;;;;;-0.47;74.29;99981.16;1666198;84;21544;-69
2021/12/04 00:57:40;;;;;;;18.42;13.13;;;;;;;-0.51;74.45;99982.82;1638782;86;21126;-70
2021/12/04 01:00:09;;;;;;;14.60;10.40;;;;;;;-0.57;74.73;99984.64;1636826;86;21073;-71
2021/12/04 01:02:35;;;;;;;17.37;12.27;;;;;;;-0.61;74.85;99982.74;1634021;86;21570;-68
2021/12/04 01:05:04;;;;;;;16.57;13.17;;;;;;;-0.64;74.90;99977.30;1638980;86;21078;-70
2021/12/04 01:07:30;;;;;;;15.27;11.60;;;;;;;-0.66;74.85;99979.66;1642437;86;21302;-71
2021/12/04 01:09:57;;;;;;;17.63;13.00;;;;;;;-0.70;75.02;99976.45;1642415;86;21164;-69
2021/12/04 01:12:23;;;;;;;12.23;10.25;;;;;;;-0.73;75.12;99978.52;1659607;84;21079;-69
2021/12/04 01:14:49;;;;;;;14.87;11.60;;;;;;;-0.74;75.22;99982.91;1663003;84;21076;-70
2021/12/04 01:17:15;;;;;;;17.62;12.37;;;;;;;-0.95;75.29;99958.48;1655439;84;21038;-70
2021/12/04 01:19:41;;;;;;;20.17;13.10;;;;;;;-0.80;75.31;99988.64;1684520;84;21535;-68
2021/12/04 01:22:08;;;;;;;18.42;12.35;;;;;;;-0.85;75.38;99988.17;1682072;83;21578;-68
2021/12/04 01:24:34;;;;;;;16.07;12.47;;;;;;;-0.84;75.44;99991.16;1645772;86;21553;-70
2021/12/04 01:27:00;;;;;;;16.80;11.55;;;;;;;-0.83;75.58;99996.73;1690628;83;22250;-72
2021/12/04 01:29:26;;;;;;;17.80;12.30;;;;;;;-0.80;75.58;99995.19;1688373;83;21050;-69
2021/12/04 01:31:52;;;;;;;17.77;13.70;;;;;;;-0.78;75.55;99997.20;1690458;83;20951;-71
2021/12/04 01:34:18;;;;;;;17.23;12.07;;;;;;;-0.76;75.54;99992.67;1666186;83;21091;-70
2021/12/04 01:36:44;;;;;;;14.03;11.22;;;;;;;-0.75;75.52;99991.73;1646397;86;21041;-70
2021/12/04 01:39:11;;;;;;;20.88;12.25;;;;;;;-0.74;75.49;99991.24;1644873;86;21071;-71
2021/12/04 01:41:38;;;;;;;18.50;12.55;;;;;;;-0.77;75.49;99991.48;1640232;86;21126;-69
2021/12/04 01:44:06;;;;;;;17.10;11.53;;;;;;;-0.79;75.55;99992.94;1638945;84;21125;-69
2021/12/04 01:46:34;;;;;;;15.50;12.07;;;;;;;-0.81;75.64;99994.36;1626972;86;21615;-68
2021/12/04 01:49:00;;;;;;;14.27;11.07;;;;;;;-0.82;75.67;99987.45;1619598;86;22176;-68
2021/12/04 01:51:26;;;;;;;19.17;11.88;;;;;;;-0.81;75.70;99989.12;1631112;86;21163;-68
2021/12/04 01:53:52;;;;;;;18.50;13.20;;;;;;;-0.79;75.60;99999.00;1631811;86;21039;-68
2021/12/04 01:56:19;;;;;;;17.12;12.50;;;;;;;-0.79;75.67;99994.25;1625305;81;21057;-69
2021/12/04 01:58:45;;;;;;;17.60;11.33;;;;;;;-0.75;75.62;100000.89;1640568;86;21573;-69
2021/12/04 02:01:12;;;;;;;16.27;11.63;;;;;;;-0.74;75.46;99997.30;1629415;86;21489;-68
2021/12/04 02:03:39;;;;;;;;;;;;;;;-0.76;75.41;100005.76;1628477;86;21011;-70
2021/12/04 02:06:05;;;;;;;17.53;12.37;;;;;;;-0.78;75.33;100007.67;1637286;86;20192;-74
2021/12/04 02:08:31;;;;;;;14.98;12.13;;;;;;;-0.87;75.48;100008.41;1635498;85;21026;-70
2021/12/04 02:11:00;;;;;;;16.75;12.73;;;;;;;-0.95;76.14;100016.87;1658771;85;21063;-69
2021/12/04 02:13:27;;;;;;;15.70;11.37;;;;;;;-0.95;76.14;100016.87;1659377;84;21658;-69
2021/12/04 02:15:56;;;;;;;17.62;13.20;;;;;;;-0.96;76.00;100017.84;1664660;84;21064;-69
2021/12/04 02:18:22;;;;;;;18.10;13.23;;;;;;;-0.94;75.89;100020.30;1657413;84;21030;-69
2021/12/04 02:20:50;;;;;;;16.97;13.95;;;;;;;-0.94;75.92;100019.00;1655812;84;21050;-70
2021/12/04 02:23:18;;;;;;;15.63;12.47;;;;;;;-0.89;75.90;100015.06;1646308;84;21098;-69
2021/12/04 02:25:45;;;;;;;16.33;13.13;;;;;;;-0.89;75.67;100014.23;1646904;85;21909;-71
2021/12/04 02:28:13;;;;;;;15.80;11.88;;;;;;;-0.88;75.64;100022.45;1646676;85;21562;-69
2021/12/04 02:30:44;;;;;;;19.43;14.33;;;;;;;-0.88;75.76;100022.45;1648545;85;21016;-69
2021/12/04 02:33:14;;;;;;;19.17;14.37;;;;;;;-0.88;75.51;100027.20;1653447;83;21961;-70
2021/12/04 02:35:51;;;;;;;21.50;13.70;;;;;;;-0.92;75.61;100028.41;1688903;83;21279;-70
2021/12/04 02:38:23;;;;;;;17.27;12.37;;;;;;;-0.95;75.74;100031.74;1689068;83;21025;-70
2021/12/04 02:40:52;;;;;;;17.50;12.50;;;;;;;-0.94;75.66;100033.39;1688262;83;21604;-70
2021/12/04 02:43:20;;;;;;;22.77;11.83;;;;;;;-1.02;75.56;100025.70;1688956;83;21115;-70
2021/12/04 02:45:46;;;;;;;17.30;13.53;;;;;;;-1.00;75.65;100031.63;1612968;84;21059;-69
2021/12/04 02:48:16;;;;;;;15.00;11.88;;;;;;;-1.00;75.79;100034.25;1660354;85;21110;-69
2021/12/04 02:50:42;;;;;;;15.03;12.03;;;;;;;-1.01;75.84;100037.81;1655936;85;21081;-69
2021/12/04 02:53:08;;;;;;;16.93;12.55;;;;;;;-1.02;75.83;100035.30;1658881;85;20991;-69
2021/12/04 02:55:36;;;;;;;16.83;11.70;;;;;;;-1.01;76.00;100035.19;1650081;83;21476;-69
2021/12/04 02:58:02;;;;;;;;;;;;;;;-0.99;76.08;100027.22;1663522;85;21496;-71
2021/12/04 03:00:29;;;;;;;18.93;13.70;;;;;;;-0.93;76.03;100028.52;1659344;85;20132;-74
2021/12/04 03:02:56;;;;;;;16.93;12.90;;;;;;;-0.96;76.23;100023.07;1675105;84;21130;-70
2021/12/04 03:05:26;;;;;;;16.07;12.13;;;;;;;-0.89;76.13;100020.78;1676718;84;21013;-71
2021/12/04 03:07:55;;;;;;;16.63;11.63;;;;;;;-0.87;75.86;100028.84;1674059;84;21500;-70
2021/12/04 03:10:23;;;;;;;17.63;12.47;;;;;;;-0.86;75.76;100018.75;1681433;84;21147;-69
2021/12/04 03:12:52;;;;;;;18.90;12.33;;;;;;;-0.84;75.69;100024.69;1668682;83;21074;-69
2021/12/04 03:15:20;;;;;;;17.57;13.37;;;;;;;-0.85;75.61;100025.66;1667484;83;21089;-69
2021/12/04 03:17:47;;;;;;;18.20;12.53;;;;;;;-0.81;75.56;100027.53;1669124;83;21093;-73
2021/12/04 03:20:14;;;;;;;17.90;12.43;;;;;;;-0.79;75.56;100030.89;1666124;83;21145;-71
2021/12/04 03:22:43;;;;;;;18.17;13.23;;;;;;;-0.76;75.45;100037.16;1676525;82;21010;-71
2021/12/04 03:25:09;;;;;;;15.53;12.33;;;;;;;-0.73;75.39;100033.48;1699457;82;22186;-70
2021/12/04 03:27:37;;;;;;;16.07;11.90;;;;;;;-0.72;75.30;100042.50;1690095;82;21082;-70
2021/12/04 03:30:09;;;;;;;16.07;12.43;;;;;;;-0.72;75.17;100039.88;1689759;82;21420;-73
2021/12/04 03:40:50;;;;;;;23.83;16.83;;;;;;;-0.73;75.04;100043.95;1691845;83;22232;-70
2021/12/04 03:43:09;;;;;;;20.03;14.87;;;;;;;-0.74;74.96;100046.20;1673102;83;21013;-69
2021/12/04 03:45:40;;;;;;;20.50;15.37;;;;;;;-0.81;74.80;100047.16;1693297;82;21008;-77
2021/12/04 03:48:13;;;;;;;20.03;15.03;;;;;;;-0.87;74.96;100043.73;1701487;82;21049;-69
2021/12/04 03:50:37;;;;;;;19.40;14.57;;;;;;;-0.89;75.21;100041.23;1702051;82;21019;-69
2021/12/04 03:53:04;;;;;;;21.95;15.78;;;;;;;-0.84;75.17;100050.04;1700182;82;21070;-69
2021/12/04 03:55:31;;;;;;;24.53;16.90;;;;;;;-0.83;75.00;100047.76;1708507;82;21050;-68
2021/12/04 03:57:57;;;;;;;17.73;13.43;;;;;;;-0.84;74.93;100044.31;1704172;82;21212;-68
2021/12/04 04:00:28;;;;;;;24.07;17.97;;;;;;;-0.86;74.91;100054.08;1714199;82;21042;-69
2021/12/04 04:02:52;;;;;;;21.07;16.03;;;;;;;-0.90;74.85;100052.66;1701981;82;21085;-68
2021/12/04 04:05:18;;;;;;;21.30;16.02;;;;;;;-0.90;75.07;100058.38;1691289;82;21082;-68
2021/12/04 04:07:46;;;;;;;25.27;18.07;;;;;;;-0.92;74.98;100056.34;1717757;82;21115;-68
2021/12/04 04:10:14;;;;;;;21.37;17.63;;;;;;;-0.94;75.04;100054.32;1713056;82;21054;-68
2021/12/04 04:12:40;;;;;;;20.63;16.70;;;;;;;-0.94;75.07;100058.24;1640976;83;21009;-68
2021/12/04 04:15:07;;;;;;;25.75;20.15;;;;;;;-0.95;75.22;100059.22;1667388;83;21116;-67
2021/12/04 04:17:42;;;;;;;25.73;20.37;;;;;;;-0.94;75.11;100062.17;1668975;83;21077;-68
2021/12/04 04:20:03;;;;;;;23.30;16.87;;;;;;;-0.94;75.16;100063.48;1661485;83;21490;-68
2021/12/04 04:22:31;;;;;;;24.77;18.00;;;;;;;-0.96;75.06;100062.77;1665963;82;21111;-68
2021/12/04 04:24:57;;;;;;;20.15;15.40;;;;;;;-0.95;75.13;100067.06;1684092;82;21073;-73
2021/12/04 04:27:23;;;;;;;19.17;15.10;;;;;;;-0.95;75.16;100065.75;1690395;82;22145;-70
2021/12/04 04:29:49;;;;;;;28.50;17.15;;;;;;;-0.96;75.08;100057.54;1689124;82;21033;-73
2021/12/04 04:32:15;;;;;;;24.60;17.48;;;;;;;-0.98;75.27;100061.58;1693596;82;21464;-70
2021/12/04 04:34:41;;;;;;;23.75;16.35;;;;;;;-0.96;75.33;100061.01;1695665;81;21043;-71
2021/12/04 04:59:07;;;;;;;21.53;13.90;;;;;;;-1.12;75.29;100066.59;1692071;82;21092;-68
2021/12/04 05:14:34;;;;;;;21.53;13.87;;;;;;;-1.15;75.48;100078.59;1672650;83;21126;-68
2021/12/04 05:17:08;;;;;;;26.53;15.17;;;;;;;-1.15;75.46;100082.52;1662423;83;21113;-67
2021/12/04 05:22:12;;;;;;;21.47;15.53;;;;;;;-1.16;75.74;100092.64;1670568;83;21094;-69
2021/12/04 05:24:41;;;;;;;22.93;17.13;;;;;;;-1.13;75.77;100093.72;1665685;83;21517;-68
2021/12/04 05:27:09;;;;;;;21.83;15.77;;;;;;;-1.15;75.64;100091.67;1648256;85;21108;-69
2021/12/04 05:29:35;;;;;;;22.00;16.83;;;;;;;-1.17;75.55;100093.57;1673925;83;21038;-67
2021/12/04 05:32:06;;;;;;;;;;;;;;;-1.17;75.79;100096.19;1638470;85;21036;-68
2021/12/04 05:34:34;;;;;;;22.47;15.80;;;;;;;-1.16;75.84;100100.97;1628100;86;20100;-69
2021/12/04 05:37:01;;;;;;;20.20;14.70;;;;;;;-1.17;76.02;100101.42;1664010;84;21067;-69
2021/12/04 05:39:27;;;;;;;22.10;14.75;;;;;;;-1.16;75.83;100114.05;1660228;84;21056;-69
2021/12/04 05:41:54;;;;;;;21.42;13.55;;;;;;;-1.16;75.69;100114.87;1661697;85;21011;-68
2021/12/04 05:44:24;;;;;;;22.23;15.40;;;;;;;-1.16;75.86;100107.50;1657658;85;21325;-69
2021/12/04 05:46:55;;;;;;;18.40;13.40;;;;;;;-1.12;75.88;100110.23;1641939;86;21058;-68
2021/12/04 05:49:26;;;;;;;16.20;12.20;;;;;;;-1.10;75.89;100106.54;1645185;86;21149;-67
2021/12/04 05:57:10;;;;;;;19.47;13.20;;;;;;;-1.02;75.59;100111.17;1643280;85;21030;-67
2021/12/04 05:59:37;;;;;;;17.00;11.37;;;;;;;-0.99;75.52;100111.77;1647429;85;21166;-68
2021/12/04 06:02:04;;;;;;;18.70;13.32;;;;;;;-1.02;75.45;100115.95;1642185;85;21589;-68
2021/12/04 06:04:32;;;;;;;17.87;12.73;;;;;;;-1.04;75.41;100117.83;1653679;85;21557;-67
2021/12/04 06:06:58;;;;;;;18.50;13.75;;;;;;;-1.07;75.49;100118.08;1693343;83;21076;-68
2021/12/04 06:09:25;;;;;;;22.93;13.75;;;;;;;-1.04;75.58;100121.75;1656333;85;21152;-67
2021/12/04 06:11:51;;;;;;;24.40;13.48;;;;;;;-1.01;75.53;100122.83;1696644;82;21032;-69
2021/12/04 06:14:17;;;;;;;13.48;10.78;;;;;;;-1.00;75.45;100129.75;1653556;85;21643;-69
2021/12/04 06:16:43;;;;;;;20.37;12.82;;;;;;;-0.95;75.33;100139.84;1687427;83;21091;-68
2021/12/04 06:19:24;;;;;;;15.80;12.93;;;;;;;-0.95;75.28;100146.86;1689905;83;21508;-67
2021/12/04 06:24:25;;;;;;;19.53;13.83;;;;;;;-0.85;75.57;100146.49;1681530;83;21045;-67
2021/12/04 06:26:51;;;;;;;18.60;14.45;;;;;;;-0.76;74.85;100152.81;1691707;83;21062;-67
2021/12/04 06:29:17;;;;;;;23.65;14.38;;;;;;;-0.73;74.72;100145.55;1686004;83;21090;-69
2021/12/04 06:31:43;;;;;;;24.32;15.65;;;;;;;-0.70;74.83;100148.39;1695179;83;21078;-68
2021/12/04 06:34:10;;;;;;;21.75;14.13;;;;;;;-0.64;74.43;100142.66;1688543;83;21530;-68
2021/12/04 06:36:37;;;;;;;23.67;14.07;;;;;;;-0.65;74.34;100141.84;1693086;83;21066;-67
2021/12/04 06:39:05;;;;;;;19.70;13.67;;;;;;;-0.60;74.29;100144.94;1678110;83;21058;-68
2021/12/04 06:41:31;;;;;;;21.67;13.40;;;;;;;-0.56;74.06;100143.40;1677700;83;21319;-69
2021/12/04 06:43:57;;;;;;;16.50;12.95;;;;;;;-0.52;74.04;100144.33;1694645;83;20990;-68
2021/12/04 06:46:24;;;;;;;16.15;12.63;;;;;;;-0.46;74.10;100142.52;1722331;82;21006;-68
2021/12/04 06:49:12;;;;;;;19.02;12.00;;;;;;;-0.36;73.68;100143.92;1674619;84;21051;-70
2021/12/04 06:51:37;;;;;;;18.70;13.23;;;;;;;-0.34;73.35;100147.28;1670986;84;21090;-69
2021/12/04 06:54:10;;;;;;;23.77;14.57;;;;;;;-0.30;73.15;100149.15;1640819;86;22236;-68
2021/12/04 06:56:35;;;;;;;20.73;13.17;;;;;;;-0.26;72.83;100149.28;1656119;85;21640;-68
2021/12/04 06:59:09;;;;;;;21.67;13.80;;;;;;;-0.26;72.72;100143.56;1650176;85;21188;-63
2021/12/04 07:01:37;;;;;;;16.77;11.77;;;;;;;-0.26;72.84;100144.05;1664146;84;21110;-63
2021/12/04 07:04:05;;;;;;;18.50;13.97;;;;;;;-0.20;72.85;100144.37;1648846;85;21037;-63
2021/12/04 07:06:32;;;;;;;18.67;13.13;;;;;;;-0.12;72.88;100145.55;1690680;82;21102;-64
2021/12/04 07:08:58;;;;;;;;;;;;;;;-0.05;72.66;100148.84;1723741;82;21524;-67
2021/12/04 07:11:27;;;;;;;24.18;13.18;;;;;;;0.01;72.25;100153.25;1689673;82;20240;-68
2021/12/04 07:13:54;;;;;;;18.97;12.50;;;;;;;-0.04;72.14;100149.22;1695481;82;21013;-67
2021/12/04 07:16:21;;;;;;;17.40;13.27;;;;;;;0.00;72.05;100151.11;1698701;82;21061;-68
2021/12/04 07:18:48;;;;;;;15.87;11.60;;;;;;;0.01;72.08;100157.17;1699316;82;21018;-68
2021/12/04 07:21:15;;;;;;;19.00;12.07;;;;;;;0.07;71.92;100153.56;1694557;82;21088;-68
2021/12/04 07:23:42;;;;;;;17.43;13.00;;;;;;;0.12;71.88;100152.72;1716933;81;20950;-69
2021/12/04 07:26:08;;;;;;;18.55;13.98;;;;;;;0.17;71.64;100156.26;1718789;81;21124;-68
2021/12/04 07:28:36;;;;;;;17.00;13.43;;;;;;;0.19;71.65;100155.20;1728425;81;21505;-68
2021/12/04 07:31:05;;;;;;;23.70;16.03;;;;;;;0.25;71.34;100154.34;1722993;81;21002;-69
2021/12/04 07:33:34;;;;;;;22.67;14.50;;;;;;;0.28;71.42;100158.01;1728917;81;21081;-68
2021/12/04 07:36:00;;;;;;;;;;;;;;;0.32;71.25;100156.79;1727132;81;21134;-69
2021/12/04 07:38:28;;;;;;;24.67;15.53;;;;;;;0.37;71.30;100158.07;1722176;81;20196;-68
2021/12/04 07:40:54;;;;;;;23.13;15.40;;;;;;;0.38;71.01;100162.37;1725629;81;21141;-70
2021/12/04 07:43:21;;;;;;;24.07;17.92;;;;;;;0.39;70.70;100164.51;1726540;81;21100;-67
2021/12/04 07:45:48;;;;;;;;;;;;;;;0.43;70.79;100171.16;1704509;79;21068;-69
2021/12/04 07:48:14;;;;;;;24.23;15.67;;;;;;;0.48;70.55;100168.99;1703545;82;20144;-69
2021/12/04 07:50:41;;;;;;;26.55;17.10;;;;;;;0.44;70.48;100168.91;1699184;82;21057;-69
2021/12/04 07:53:07;;;;;;;29.43;18.37;;;;;;;0.43;69.93;100175.09;1709322;82;21073;-68
2021/12/04 07:55:34;;;;;;;;;;;;;;;0.38;70.02;100175.97;1699975;82;21049;-68
2021/12/04 07:58:01;;;;;;;18.40;14.30;;;;;;;0.40;70.10;100176.67;1667308;84;20503;-69
2021/12/04 08:00:29;;;;;;;27.77;17.67;;;;;;;0.37;70.46;100180.36;1677230;82;21584;-71
2021/12/04 08:02:56;;;;;;;23.33;17.23;;;;;;;0.48;70.30;100179.48;1717263;81;21544;-71
2021/12/04 08:05:24;;;;;;;22.98;16.27;;;;;;;0.54;70.37;100179.45;1735248;81;21025;-70
2021/12/04 08:07:50;;;;;;;21.43;17.00;;;;;;;0.59;70.26;100179.91;1720885;81;21080;-70
2021/12/04 08:10:20;;;;;;;23.40;16.05;;;;;;;0.66;70.63;100181.07;1727818;81;21064;-68
2021/12/04 08:12:47;;;;;;;26.97;18.70;;;;;;;0.70;70.32;100174.60;1721908;81;21032;-71
2021/12/04 08:15:17;;;;;;;26.57;17.93;;;;;;;0.73;70.06;100176.13;1730335;81;21533;-71
2021/12/04 08:17:45;;;;;;;28.87;17.77;;;;;;;0.74;70.03;100181.25;1724874;81;21016;-71
2021/12/04 08:20:14;;;;;;;24.30;16.53;;;;;;;0.84;69.79;100179.98;1724165;81;21093;-70
2021/12/04 08:22:41;;;;;;;24.03;17.77;;;;;;;0.90;69.73;100176.84;1726663;81;21025;-68
2021/12/04 08:25:09;;;;;;;;;;;;;;;0.99;69.42;100173.10;1724291;81;21077;-70
2021/12/04 08:27:35;;;;;;;26.47;17.33;;;;;;;1.04;69.10;100166.98;1720559;81;21357;-71
2021/12/04 08:30:05;;;;;;;;;;;;;;;1.08;68.85;100167.07;1725839;81;21087;-73
2021/12/04 08:32:32;;;;;;;29.57;18.13;;;;;;;1.13;68.94;100168.80;1728873;81;20198;-69
2021/12/04 08:34:58;;;;;;;27.60;19.27;;;;;;;1.10;68.57;100164.66;1715353;80;21034;-71
2021/12/04 08:37:26;;;;;;;25.20;19.42;;;;;;;1.13;68.77;100159.16;1714593;82;21014;-70
2021/12/04 08:39:52;;;;;;;26.83;18.87;;;;;;;1.22;68.78;100158.82;1714562;82;21015;-71
2021/12/04 08:42:19;;;;;;;24.92;19.32;;;;;;;1.32;68.66;100156.26;1714177;82;20979;-71
2021/12/04 08:44:48;;;;;;;24.33;18.03;;;;;;;1.43;67.97;100155.30;1701391;82;21066;-73
2021/12/04 08:47:14;;;;;;;22.70;18.40;;;;;;;1.46;67.43;100156.36;1712226;82;21070;-76
2021/12/04 08:49:40;;;;;;;30.27;17.77;;;;;;;1.51;67.38;100152.37;1716497;82;21157;-71
2021/12/04 08:52:08;;;;;;;23.87;18.32;;;;;;;1.52;66.76;100149.25;1700209;82;21093;-71
2021/12/04 08:54:36;;;;;;;23.93;15.77;;;;;;;1.54;66.71;100151.25;1708690;82;20982;-74
2021/12/04 08:57:04;;;;;;;25.67;17.90;;;;;;;1.55;66.64;100148.99;1718085;82;21034;-73
2021/12/04 08:59:33;;;;;;;22.20;17.37;;;;;;;1.59;66.37;100142.50;1701036;82;21088;-74
2021/12/04 09:02:00;;;;;;;21.53;18.80;;;;;;;1.61;66.50;100142.37;1712342;82;21561;-70
2021/12/04 09:04:31;;;;;;;24.70;18.13;;;;;;;1.67;66.29;100133.94;1712058;82;21559;-72
2021/12/04 09:06:59;;;;;;;23.63;18.50;;;;;;;1.67;66.24;100134.76;1704342;82;21534;-71
2021/12/04 09:09:28;;;;;;;35.13;19.87;;;;;;;1.69;66.23;100130.69;1707541;82;21058;-72
2021/12/04 09:12:00;;;;;;;26.77;17.80;;;;;;;1.74;66.20;100129.80;1716444;82;21030;-73
2021/12/04 09:14:31;;;;;;;25.47;18.90;;;;;;;1.83;65.85;100122.88;1705247;82;21025;-72
2021/12/04 09:17:00;;;;;;;25.30;19.43;;;;;;;1.86;65.78;100127.88;1706353;82;21038;-73
2021/12/04 09:19:26;;;;;;;27.63;19.30;;;;;;;1.89;65.60;100125.80;1718422;82;21042;-71
2021/12/04 09:25:12;;;;;;;27.77;19.07;;;;;;;2.04;65.34;100118.83;1805747;77;22622;-73
2021/12/04 10:06:00;;;;;;;32.37;20.93;;;;;;;2.30;63.45;100085.73;1689787;83;21014;-69
2021/12/04 10:14:12;;;;;;;32.07;22.07;;;;;;;2.27;63.82;100086.49;1688530;83;21054;-69
2021/12/04 10:24:28;;;;;;;34.63;24.30;;;;;;;2.24;64.20;100085.45;1683592;83;21600;-69
2021/12/04 10:35:14;;;;;;;41.33;27.13;;;;;;;1.93;64.76;100075.92;1691036;83;21001;-66
2021/12/04 10:37:52;;;;;;;40.13;27.43;;;;;;;1.85;65.03;100076.30;1699660;83;21052;-71
2021/12/04 10:40:22;;;;;;;36.93;24.90;;;;;;;1.84;65.28;100078.06;1688453;83;21010;-72
2021/12/04 10:42:54;;;;;;;36.50;25.57;;;;;;;1.83;65.21;100070.31;1680696;83;21048;-71
2021/12/04 10:45:38;;;;;;;36.10;22.63;;;;;;;1.85;65.27;100066.60;1702209;83;21033;-71
2021/12/04 10:48:11;;;;;;;31.60;21.07;;;;;;;1.71;65.54;100035.01;1682419;83;21167;-70
2021/12/04 10:53:14;;;;;;;37.63;25.77;;;;;;;1.98;65.18;100054.49;1689553;83;21009;-70
2021/12/04 11:01:23;;;;;;;22.93;16.77;;;;;;;2.11;64.88;100055.03;1702028;82;21623;-70
2021/12/04 11:38:28;;;;;;;29.97;19.50;;;;;;;2.20;64.87;100019.64;1652206;85;21034;-72
2021/12/04 11:43:20;;;;;;;24.85;17.45;;;;;;;2.23;64.82;100020.19;1662558;85;21011;-70
2021/12/04 11:48:33;;;;;;;28.33;19.27;;;;;;;2.22;64.52;100015.07;1656171;85;21082;-73
2021/12/04 11:51:02;;;;;;;26.10;18.43;;;;;;;2.15;64.93;100010.88;1656749;85;21501;-72
2021/12/04 11:53:32;;;;;;;26.37;16.73;;;;;;;2.16;65.11;100009.08;1655245;85;21006;-73
2021/12/04 11:55:59;;;;;;;21.67;15.90;;;;;;;2.13;64.93;100007.56;1656388;85;21084;-72
2021/12/04 11:58:33;;;;;;;25.20;16.60;;;;;;;2.13;64.34;100011.52;1660095;85;21623;-72
2021/12/04 12:01:04;;;;;;;27.73;19.50;;;;;;;2.13;64.70;100011.52;1662485;85;21560;-74
2021/12/04 12:03:35;;;;;;;24.40;16.33;;;;;;;2.17;64.79;100010.72;1661520;85;21072;-70
2021/12/04 12:06:10;;;;;;;24.80;15.23;;;;;;;2.17;64.80;100011.56;1666197;85;21607;-73
2021/12/04 12:08:43;;;;;;;26.90;18.93;;;;;;;2.24;64.88;100015.29;1672307;85;21024;-72
2021/12/04 12:11:25;;;;;;;25.90;17.03;;;;;;;2.27;64.53;100010.22;1670458;83;21064;-71
2021/12/04 12:14:05;;;;;;;30.13;18.03;;;;;;;2.27;64.43;100007.09;1687967;83;21073;-70
2021/12/04 12:16:38;;;;;;;29.60;17.13;;;;;;;2.24;64.70;100012.66;1689357;83;21393;-70
2021/12/04 12:19:11;;;;;;;25.53;18.10;;;;;;;2.19;64.25;100003.05;1693144;83;21075;-71
2021/12/04 12:21:55;;;;;;;26.90;18.77;;;;;;;2.19;64.37;100000.91;1699864;83;21059;-71
2021/12/04 12:38:43;;;;;;;33.43;19.53;;;;;;;2.25;64.88;99984.06;1677293;83;20992;-71
2021/12/04 12:41:26;;;;;;;27.57;17.87;;;;;;;2.22;65.01;99981.70;1682865;83;21110;-71
2021/12/04 12:44:24;;;;;;;33.37;20.53;;;;;;;2.21;65.22;99981.38;1684574;83;21054;-71
2021/12/04 12:47:04;;;;;;;28.47;19.57;;;;;;;2.19;65.09;99985.13;1690923;83;21054;-72
2021/12/04 12:49:41;;;;;;;28.80;20.63;;;;;;;2.13;65.41;99987.35;1689511;83;20996;-70
2021/12/04 12:52:26;;;;;;;32.60;20.72;;;;;;;2.11;65.45;99990.61;1677643;83;21620;-71
2021/12/04 12:54:59;;;;;;;25.73;18.53;;;;;;;2.06;65.77;99988.06;1683810;83;21086;-71
2021/12/04 12:57:30;;;;;;;26.50;19.10;;;;;;;2.05;65.87;99983.77;1689684;83;21473;-72
2021/12/04 13:11:53;;;;;;;28.90;19.77;;;;;;;1.99;66.29;99977.27;1683955;82;21108;-70
2021/12/04 13:14:28;;;;;;;28.80;20.03;;;;;;;1.94;66.37;99979.03;1644679;85;21046;-71
2021/12/04 13:17:06;;;;;;;28.90;19.50;;;;;;;1.93;66.43;99981.30;1649792;85;21042;-69
2021/12/04 13:19:37;;;;;;;28.30;19.63;;;;;;;1.91;66.54;99977.98;1658439;85;21078;-72
2021/12/04 13:22:15;;;;;;;34.50;20.90;;;;;;;1.90;66.69;99975.03;1655145;85;21102;-73
2021/12/04 13:24:42;;;;;;;;;;;;;;;1.86;66.63;99974.12;1668221;85;21108;-71
2021/12/04 13:29:45;;;;;;;31.53;19.73;;;;;;;1.73;66.91;99979.20;1630770;86;21022;-71
2021/12/04 13:32:16;;;;;;;25.53;17.73;;;;;;;1.68;67.34;99982.72;1633160;86;21394;-70
2021/12/04 13:34:43;;;;;;;26.70;18.50;;;;;;;1.67;67.45;99973.17;1633190;86;21006;-70
2021/12/04 13:37:12;;;;;;;33.37;19.10;;;;;;;1.67;67.38;99965.28;1635677;86;22526;-70
2021/12/04 13:39:42;;;;;;;24.47;17.63;;;;;;;1.67;67.39;99965.78;1627771;86;21065;-72
2021/12/04 13:42:09;;;;;;;30.17;19.50;;;;;;;1.67;67.45;99966.59;1636537;86;21113;-71
2021/12/04 13:44:36;;;;;;;34.43;21.82;;;;;;;1.68;67.53;99967.45;1629974;86;21533;-70
2021/12/04 13:47:07;;;;;;;25.77;17.97;;;;;;;1.71;67.56;99967.15;1620220;87;21039;-71
2021/12/04 13:49:39;;;;;;;35.87;19.87;;;;;;;1.70;67.59;99961.57;1601158;87;21108;-72
2021/12/04 13:52:10;;;;;;;33.20;20.47;;;;;;;1.73;67.51;99972.63;1597475;87;21649;-71
2021/12/04 13:54:45;;;;;;;30.87;21.37;;;;;;;1.67;67.75;99962.66;1631253;86;21054;-71
2021/12/04 13:57:14;;;;;;;26.30;19.13;;;;;;;1.68;67.69;99966.95;1632631;85;21065;-70
2021/12/04 13:59:42;;;;;;;29.70;20.13;;;;;;;1.64;67.89;99972.61;1629946;86;21086;-73
2021/12/04 14:02:26;;;;;;;33.13;21.53;;;;;;;1.64;67.93;99965.59;1654625;85;21517;-73
2021/12/04 14:05:19;;;;;;;31.83;21.13;;;;;;;1.62;68.01;99965.36;1663812;85;21042;-70
2021/12/04 14:07:53;;;;;;;37.60;22.73;;;;;;;1.61;68.13;99963.22;1668191;85;21073;-72
2021/12/04 14:10:25;;;;;;;28.30;20.33;;;;;;;1.56;68.30;99962.80;1638994;86;21042;-71
2021/12/04 14:12:54;;;;;;;34.90;24.53;;;;;;;1.58;68.32;99967.44;1667812;85;21096;-72
2021/12/04 14:15:26;;;;;;;34.07;23.23;;;;;;;1.53;68.37;99969.18;1633123;86;21054;-71
2021/12/04 14:18:10;;;;;;;35.07;22.73;;;;;;;1.58;68.36;99968.75;1634279;86;21105;-72
2021/12/04 14:20:41;;;;;;;33.97;23.23;;;;;;;1.56;68.47;99972.00;1634226;86;21086;-72
2021/12/04 14:23:09;;;;;;;44.13;24.60;;;;;;;1.53;68.80;99969.67;1624813;85;21054;-71
2021/12/04 14:25:45;;;;;;;35.50;23.30;;;;;;;1.49;68.94;99973.05;1609975;87;21126;-71
2021/12/04 14:28:16;;;;;;;32.93;24.03;;;;;;;1.48;68.98;99973.19;1620747;87;21018;-70
2021/12/04 14:30:44;;;;;;;36.00;24.13;;;;;;;1.44;69.26;99983.14;1621639;87;21122;-73
2021/12/04 14:33:15;;;;;;;26.57;22.07;;;;;;;1.41;69.36;99980.78;1623231;86;21092;-69
2021/12/04 14:35:45;;;;;;;36.80;24.73;;;;;;;1.40;69.46;99981.77;1621640;86;21031;-72
2021/12/04 14:38:16;;;;;;;35.23;25.50;;;;;;;1.39;69.61;99978.77;1630993;87;21102;-72
2021/12/04 14:40:48;;;;;;;35.57;23.77;;;;;;;1.38;69.68;99969.75;1627983;87;21094;-73
2021/12/04 14:43:20;;;;;;;30.97;24.10;;;;;;;1.34;69.92;99970.01;1653752;85;21047;-71
2021/12/04 14:45:51;;;;;;;37.90;24.17;;;;;;;1.32;70.11;99969.32;1645776;85;21037;-74
2021/12/04 14:48:35;;;;;;;34.27;22.07;;;;;;;1.08;70.28;99940.02;1632569;86;21050;-72
2021/12/04 14:51:15;;;;;;;31.93;22.03;;;;;;;1.24;70.39;99969.65;1633353;86;21163;-71
2021/12/04 14:53:53;;;;;;;35.33;23.07;;;;;;;1.18;70.71;99968.89;1634688;86;21573;-74